Accueil
METAR-TAF:

METAR-TAF

Aéroports :

Aéroport de Karlsruhe-Baden-Baden

Baden-Baden, Allemagne

latitude: 48-46-43N, longitude: 008-04-47E, altitude: 124 m

Observation

Le bulletin a été fait il y a 15 minutes, à 20:50 UTC
Vent 2 kt de nord/nord-ouest
Température 12°C
Humidité 88%
Pression 1030 hPa
Visibilité 10 km ou plus
Quelques nuages à une hauteur de 3900 ft
Ciel couvert à une hauteur de 5700 ft

METAR: EDSB 062050Z 33002KT 9999 FEW039 OVC057 12/10 Q1030

Heure: 23:05 (21:05 UTC)

Prévision

Le bulletin a été fait il y a 4 heures et 5 minutes, à 17:00 UTC
Prévision valable du 06 à 18 UTC au 07 à 18 UTC
Vent 3 kt de direction variable
Visibilité 10 km ou plus
pas de nuages en-dessous de 1500 mètres et pas de cumulonimbus.
Probabilité 30% :
Temporairement
du 07 à 03 UTC au 07 à 08 UTC
Visibilité: 1200 m
bancs de brouillard

TAF: EDSB 061700Z 0618/0718 VRB03KT CAVOK PROB30 TEMPO 0703/0708 1200 BCFG

Observations et prévisions météorologiques de plus de 4000 aéroports (messages METAR et TAF).

Les stations disponibles sont représentées par des disques jaunes et rouges sur la carte.

Passer la souris dessus pour voir le nom de la station.

Cliquer dessus pour voir les observations et prévisions météorologiques.

Pour changer de carte: cliquez sur les boutons verts avec une croix noire pour zoomer, sur le bouton vert avec un tiret pour effectuer un zoom arrière, ou sur les flèches vertes pour les cartes adjacentes.


METAR-TAF: